Time;durP1;ratioP1;P1;durP2;ratioP2;P2;SDS_P1;SDS_P2;PMS_P1;PMS_P2;Temp;Humidity;BMP_temperature;BMP_pressure;BME280_temperature;BME280_humidity;BME280_pressure;Samples;Min_cycle;Max_cycle;Signal;HPM_P1;HPM_P2
2022/06/23 00:01:28;;;;;;;5.97;2.80;;;;;;;;;;5049432;28;20116;-79
2022/06/23 00:03:55;;;;;;;5.97;3.22;;;;;;;;;;5048087;28;20021;-79
2022/06/23 00:06:35;;;;;;;6.13;3.30;;;;;;;;;;5048002;28;20024;-78
2022/06/23 00:09:01;;;;;;;6.40;3.10;;;;;;;;;;5048174;28;20037;-78
2022/06/23 00:11:27;;;;;;;8.65;3.50;;;;;;;;;;5049616;28;20021;-79
2022/06/23 00:14:12;;;;;;;7.50;2.88;;;;;;;;;;5048388;28;20025;-80
2022/06/23 00:16:38;;;;;;;4.43;2.65;;;;;;;;;;5048101;28;20033;-79
2022/06/23 00:19:03;;;;;;;5.45;2.85;;;;;;;;;;5049377;28;20045;-78
2022/06/23 00:21:32;;;;;;;5.22;3.22;;;;;;;;;;5049267;28;20124;-78
2022/06/23 00:24:01;;;;;;;4.18;3.15;;;;;;;;;;5048061;28;20024;-78
2022/06/23 00:26:31;;;;;;;4.95;3.03;;;;;;;;;;5047938;28;20071;-77
2022/06/23 00:29:15;;;;;;;4.65;2.88;;;;;;;;;;5048303;28;20037;-78
2022/06/23 00:32:06;;;;;;;3.13;2.83;;;;;;;;;;5049262;28;20025;-77
2022/06/23 00:34:36;;;;;;;5.40;2.83;;;;;;;;;;5046789;28;20037;-78
2022/06/23 00:37:10;;;;;;;5.30;2.90;;;;;;;;;;5048871;28;20021;-79
2022/06/23 00:40:07;;;;;;;5.63;2.72;;;;;;;;;;5049692;28;20017;-77
2022/06/23 00:42:40;;;;;;;5.35;2.75;;;;;;;;;;5030872;28;20107;-79
2022/06/23 00:45:31;;;;;;;4.97;2.92;;;;;;;;;;5052434;28;20021;-77
2022/06/23 00:48:23;;;;;;;4.82;2.80;;;;;;;;;;5044462;28;20560;-77
2022/06/23 00:51:10;;;;;;;5.82;3.15;;;;;;;;;;5050848;28;20033;-78
2022/06/23 00:53:42;;;;;;;3.45;2.65;;;;;;;;;;5051096;28;20048;-78
2022/06/23 00:56:36;;;;;;;5.70;3.00;;;;;;;;;;5052851;28;20061;-77
2022/06/23 00:59:24;;;;;;;4.85;3.15;;;;;;;;;;5051095;28;20037;-79
2022/06/23 01:01:57;;;;;;;6.20;3.10;;;;;;;;;;5052778;28;20025;-77
2022/06/23 01:04:35;;;;;;;5.78;2.80;;;;;;;;;;5052101;28;20036;-72
2022/06/23 01:07:19;;;;;;;4.95;3.08;;;;;;;;;;5050556;28;20028;-73
2022/06/23 01:09:56;;;;;;;5.55;2.92;;;;;;;;;;5052320;28;20075;-74
2022/06/23 01:12:31;;;;;;;5.50;2.90;;;;;;;;;;5050789;28;20476;-73
2022/06/23 01:15:19;;;;;;;4.70;2.92;;;;;;;;;;5051182;28;20119;-73
2022/06/23 01:17:56;;;;;;;7.00;3.50;;;;;;;;;;5050964;28;20121;-73
2022/06/23 01:20:36;;;;;;;4.25;3.03;;;;;;;;;;5051779;28;20377;-73
2022/06/23 01:23:29;;;;;;;7.35;3.58;;;;;;;;;;5062827;28;20320;-73
2022/06/23 01:26:13;;;;;;;3.80;2.95;;;;;;;;;;5070532;28;20096;-73
2022/06/23 01:28:41;;;;;;;3.15;2.40;;;;;;;;;;5069843;28;20032;-74
2022/06/23 01:31:15;;;;;;;8.00;3.15;;;;;;;;;;5070053;28;20036;-75
2022/06/23 01:33:56;;;;;;;7.00;3.63;;;;;;;;;;5070364;28;20040;-73
2022/06/23 01:36:21;;;;;;;5.07;3.30;;;;;;;;;;5069909;28;20028;-73
2022/06/23 01:39:21;;;;;;;3.00;2.70;;;;;;;;;;5071312;28;20024;-75
2022/06/23 01:41:56;;;;;;;4.20;2.80;;;;;;;;;;5069955;28;20362;-73
2022/06/23 01:44:51;;;;;;;4.78;2.70;;;;;;;;;;5069951;28;20024;-74
2022/06/23 01:47:17;;;;;;;5.85;3.33;;;;;;;;;;5069426;28;20055;-74
2022/06/23 01:49:46;;;;;;;3.70;2.78;;;;;;;;;;5069258;28;20496;-73
2022/06/23 01:52:17;;;;;;;4.45;3.00;;;;;;;;;;5069740;28;20028;-74
2022/06/23 01:54:43;;;;;;;;;;;;;;;;;;5072123;28;20033;-73
2022/06/23 01:57:24;;;;;;;3.85;2.80;;;;;;;;;;5071415;28;19918;-73
2022/06/23 02:00:11;;;;;;;7.35;3.15;;;;;;;;;;5070126;28;20024;-74
2022/06/23 02:03:07;;;;;;;7.35;3.33;;;;;;;;;;5069404;28;20034;-73
2022/06/23 02:05:37;;;;;;;4.93;3.10;;;;;;;;;;5071128;28;20225;-74
2022/06/23 02:08:24;;;;;;;5.28;3.20;;;;;;;;;;5070779;28;20035;-73
2022/06/23 02:11:18;;;;;;;4.38;2.90;;;;;;;;;;5070542;28;20028;-75
2022/06/23 02:14:02;;;;;;;4.47;3.20;;;;;;;;;;5069321;28;20032;-73
2022/06/23 02:16:39;;;;;;;6.10;3.50;;;;;;;;;;5069714;28;20050;-73
2022/06/23 02:19:44;;;;;;;6.03;3.80;;;;;;;;;;5069184;28;20527;-73
2022/06/23 02:22:15;;;;;;;3.15;2.85;;;;;;;;;;4991849;28;20028;-72
2022/06/23 02:24:53;;;;;;;9.77;3.53;;;;;;;;;;5061504;28;20040;-73
2022/06/23 02:27:54;;;;;;;7.85;3.03;;;;;;;;;;5070260;28;20032;-73
2022/06/23 02:30:32;;;;;;;6.03;3.80;;;;;;;;;;5051976;28;20029;-73
2022/06/23 02:33:25;;;;;;;4.13;3.25;;;;;;;;;;5069339;28;20058;-73
2022/06/23 02:36:17;;;;;;;4.50;2.97;;;;;;;;;;5068834;28;20024;-73
2022/06/23 02:38:55;;;;;;;4.68;3.28;;;;;;;;;;5064684;28;20545;-74
2022/06/23 02:41:26;;;;;;;5.65;3.20;;;;;;;;;;5068572;28;20032;-75
2022/06/23 02:44:18;;;;;;;5.72;3.10;;;;;;;;;;5069164;28;20389;-73
2022/06/23 02:46:49;;;;;;;8.80;3.53;;;;;;;;;;5046506;28;20042;-73
2022/06/23 02:49:31;;;;;;;4.30;3.15;;;;;;;;;;5070106;28;20028;-73
2022/06/23 02:52:36;;;;;;;5.85;4.45;;;;;;;;;;5070128;28;20504;-71
2022/06/23 02:55:16;;;;;;;11.40;5.32;;;;;;;;;;5068871;28;20025;-73
2022/06/23 02:57:53;;;;;;;9.02;3.70;;;;;;;;;;5068395;28;20124;-74
2022/06/23 03:00:21;;;;;;;4.82;3.00;;;;;;;;;;5069938;28;20502;-74
2022/06/23 03:03:13;;;;;;;10.95;3.60;;;;;;;;;;5069330;28;20543;-74
2022/06/23 03:05:51;;;;;;;10.55;3.88;;;;;;;;;;5068609;28;20473;-73
2022/06/23 03:08:42;;;;;;;4.00;3.40;;;;;;;;;;5068759;28;20029;-74
2022/06/23 03:11:51;;;;;;;6.70;4.18;;;;;;;;;;5068574;28;20024;-74
2022/06/23 03:14:20;;;;;;;5.20;3.83;;;;;;;;;;5069833;28;20075;-74
2022/06/23 03:16:54;;;;;;;12.77;4.80;;;;;;;;;;5069344;28;20520;-74
2022/06/23 03:19:29;;;;;;;5.82;3.95;;;;;;;;;;5067971;28;20061;-73
2022/06/23 03:22:07;;;;;;;9.30;4.00;;;;;;;;;;5065774;28;20045;-74
2022/06/23 03:24:56;;;;;;;5.95;3.88;;;;;;;;;;5048013;28;20029;-74
2022/06/23 03:27:44;;;;;;;8.40;3.97;;;;;;;;;;5037282;28;20037;-73
2022/06/23 03:30:29;;;;;;;5.90;4.07;;;;;;;;;;5048499;28;20382;-73
2022/06/23 03:33:00;;;;;;;6.65;4.30;;;;;;;;;;5048243;28;20292;-75
2022/06/23 03:35:42;;;;;;;5.40;3.95;;;;;;;;;;5048461;28;20040;-72
2022/06/23 03:41:36;;;;;;;7.82;4.32;;;;;;;;;;5048230;28;20056;-73
2022/06/23 03:41:36;;;;;;;7.30;3.78;;;;;;;;;;5049912;28;20055;-73
2022/06/23 03:44:29;;;;;;;5.45;4.35;;;;;;;;;;5049611;28;20032;-74
2022/06/23 03:47:01;;;;;;;5.28;4.18;;;;;;;;;;5049613;28;20758;-74
2022/06/23 03:49:53;;;;;;;8.85;4.35;;;;;;;;;;5047986;28;20025;-74
2022/06/23 03:52:30;;;;;;;;;;;;;;;;;;5049249;28;20123;-72
2022/06/23 03:55:02;;;;;;;7.30;4.65;;;;;;;;;;5048276;28;20360;-73
2022/06/23 03:57:33;;;;;;;8.30;4.55;;;;;;;;;;5048316;28;20021;-73
2022/06/23 04:00:23;;;;;;;12.20;4.75;;;;;;;;;;5048361;28;20013;-73
2022/06/23 04:03:01;;;;;;;8.82;4.22;;;;;;;;;;5048148;28;20040;-73
2022/06/23 04:05:58;;;;;;;4.80;4.35;;;;;;;;;;5048060;28;20577;-74
2022/06/23 04:08:30;;;;;;;7.32;4.60;;;;;;;;;;5047653;28;20021;-74
2022/06/23 04:11:43;;;;;;;13.23;4.97;;;;;;;;;;5047796;28;20024;-72
2022/06/23 04:13:49;;;;;;;7.20;4.60;;;;;;;;;;5051359;28;20029;-73
2022/06/23 04:16:15;;;;;;;8.15;4.88;;;;;;;;;;5051894;28;20033;-74
2022/06/23 04:18:44;;;;;;;7.18;5.97;;;;;;;;;;5053037;28;20114;-72
2022/06/23 04:21:19;;;;;;;6.63;5.13;;;;;;;;;;5051644;28;20074;-73
2022/06/23 04:24:00;;;;;;;5.13;4.63;;;;;;;;;;5069738;28;20040;-73
2022/06/23 04:26:41;;;;;;;8.05;5.20;;;;;;;;;;5073203;28;20790;-74
2022/06/23 04:29:43;;;;;;;9.70;5.00;;;;;;;;;;5071604;28;20032;-73
2022/06/23 04:32:20;;;;;;;6.88;4.88;;;;;;;;;;5069881;28;20046;-74
2022/06/23 04:34:54;;;;;;;9.98;4.70;;;;;;;;;;5072322;28;20035;-73
2022/06/23 04:37:44;;;;;;;15.43;5.05;;;;;;;;;;5071179;28;20484;-73
2022/06/23 04:40:23;;;;;;;5.57;4.65;;;;;;;;;;5071234;28;20028;-74
2022/06/23 04:43:02;;;;;;;19.20;5.00;;;;;;;;;;5072861;28;20021;-73
2022/06/23 04:45:33;;;;;;;9.02;5.78;;;;;;;;;;5072962;28;20074;-74
2022/06/23 04:48:02;;;;;;;7.40;5.72;;;;;;;;;;5072661;28;20052;-73
2022/06/23 04:50:46;;;;;;;19.58;5.80;;;;;;;;;;5070931;28;20035;-73
2022/06/23 04:53:33;;;;;;;18.98;6.22;;;;;;;;;;5072496;28;20040;-74
2022/06/23 04:56:08;;;;;;;12.90;5.97;;;;;;;;;;5072749;28;20027;-75
2022/06/23 04:58:35;;;;;;;10.23;4.97;;;;;;;;;;5070976;28;20126;-72
2022/06/23 05:01:01;;;;;;;12.32;5.22;;;;;;;;;;5071312;28;20017;-75
2022/06/23 05:03:48;;;;;;;9.93;5.85;;;;;;;;;;5070952;28;20016;-73
2022/06/23 05:06:34;;;;;;;6.72;4.85;;;;;;;;;;5071060;28;20059;-73
2022/06/23 05:09:12;;;;;;;10.68;5.78;;;;;;;;;;5072171;28;20378;-73
2022/06/23 05:11:49;;;;;;;5.45;4.95;;;;;;;;;;5070713;28;20107;-74
2022/06/23 05:14:44;;;;;;;10.32;4.82;;;;;;;;;;5072526;28;20090;-74
2022/06/23 05:17:22;;;;;;;9.93;5.32;;;;;;;;;;5071130;28;20028;-74
2022/06/23 05:19:51;;;;;;;8.00;4.93;;;;;;;;;;5070376;28;20041;-74
2022/06/23 05:22:26;;;;;;;9.73;5.63;;;;;;;;;;5065525;28;20512;-73
2022/06/23 05:24:54;;;;;;;6.30;5.20;;;;;;;;;;5049463;28;20115;-74
2022/06/23 05:27:28;;;;;;;9.43;5.47;;;;;;;;;;5042834;28;20021;-72
2022/06/23 05:29:58;;;;;;;10.65;5.53;;;;;;;;;;5021766;28;20057;-73
2022/06/23 05:32:47;;;;;;;7.57;5.32;;;;;;;;;;5032563;28;20354;-73
2022/06/23 05:35:20;;;;;;;8.30;5.68;;;;;;;;;;5030356;28;20030;-72
2022/06/23 05:37:58;;;;;;;13.93;8.57;;;;;;;;;;5030928;28;20287;-73
2022/06/23 05:40:33;;;;;;;11.50;6.25;;;;;;;;;;5038992;28;20535;-73
2022/06/23 05:43:01;;;;;;;7.75;5.82;;;;;;;;;;5040002;28;20024;-73
2022/06/23 05:45:48;;;;;;;11.45;5.70;;;;;;;;;;5044736;28;20107;-74
2022/06/23 05:48:20;;;;;;;9.45;5.68;;;;;;;;;;5044234;28;20461;-75
2022/06/23 05:50:48;;;;;;;12.27;5.88;;;;;;;;;;5042850;28;20039;-72
2022/06/23 05:53:58;;;;;;;8.55;5.72;;;;;;;;;;5042507;28;20473;-71
2022/06/23 05:56:49;;;;;;;10.43;5.10;;;;;;;;;;5041218;28;20029;-74
2022/06/23 05:59:18;;;;;;;8.20;5.32;;;;;;;;;;5042725;28;20405;-74
2022/06/23 06:02:01;;;;;;;6.45;5.32;;;;;;;;;;5046497;28;20037;-72
2022/06/23 06:04:47;;;;;;;8.52;5.40;;;;;;;;;;5041815;28;20173;-74
2022/06/23 06:07:17;;;;;;;7.05;4.70;;;;;;;;;;5043457;28;20051;-72
2022/06/23 06:09:43;;;;;;;6.57;5.60;;;;;;;;;;5041365;28;20057;-73
2022/06/23 06:12:17;;;;;;;9.77;6.20;;;;;;;;;;5057973;28;20032;-72
2022/06/23 06:14:54;;;;;;;7.93;5.15;;;;;;;;;;5040436;28;20136;-73
2022/06/23 06:17:24;;;;;;;9.40;5.70;;;;;;;;;;5044878;28;20133;-72
2022/06/23 06:19:55;;;;;;;8.20;5.35;;;;;;;;;;5031102;28;20069;-74
2022/06/23 06:22:41;;;;;;;9.07;6.15;;;;;;;;;;5045455;28;20061;-74
2022/06/23 06:25:30;;;;;;;8.38;6.18;;;;;;;;;;5040505;28;20032;-76
2022/06/23 06:28:08;;;;;;;12.35;6.70;;;;;;;;;;5023034;28;20137;-73
2022/06/23 06:30:38;;;;;;;11.90;6.57;;;;;;;;;;5030123;28;20064;-75
2022/06/23 06:33:05;;;;;;;9.20;5.50;;;;;;;;;;5017212;28;20041;-73
2022/06/23 06:35:43;;;;;;;9.98;5.95;;;;;;;;;;5032402;28;20044;-76
2022/06/23 06:38:13;;;;;;;12.45;5.53;;;;;;;;;;5031007;28;20037;-75
2022/06/23 06:40:42;;;;;;;14.15;7.78;;;;;;;;;;5020564;28;20558;-75
2022/06/23 06:43:14;;;;;;;11.27;7.38;;;;;;;;;;5031611;28;20545;-76
2022/06/23 06:45:40;;;;;;;8.43;6.22;;;;;;;;;;5031752;28;20070;-76
2022/06/23 06:48:19;;;;;;;7.93;6.70;;;;;;;;;;5005175;28;20152;-76
2022/06/23 06:50:48;;;;;;;11.32;6.95;;;;;;;;;;4999955;28;20025;-72
2022/06/23 06:53:21;;;;;;;11.60;7.28;;;;;;;;;;5031690;28;20056;-76
2022/06/23 06:55:51;;;;;;;14.38;8.13;;;;;;;;;;5032232;28;20437;-74
2022/06/23 06:58:38;;;;;;;14.93;6.80;;;;;;;;;;5034668;28;20031;-76
2022/06/23 07:01:23;;;;;;;17.65;11.10;;;;;;;;;;5016276;28;20864;-76
2022/06/23 07:03:53;;;;;;;11.55;6.95;;;;;;;;;;5015395;28;20045;-74
2022/06/23 07:06:40;;;;;;;8.00;6.57;;;;;;;;;;5033242;28;20453;-75
2022/06/23 07:09:32;;;;;;;11.05;6.90;;;;;;;;;;5022902;28;20473;-76
2022/06/23 07:11:58;;;;;;;8.52;6.95;;;;;;;;;;5029043;28;20135;-75
2022/06/23 07:14:31;;;;;;;13.60;6.88;;;;;;;;;;5031104;28;20051;-77
2022/06/23 07:17:22;;;;;;;11.30;7.90;;;;;;;;;;5029261;28;20178;-77
2022/06/23 07:20:21;;;;;;;12.27;7.38;;;;;;;;;;5022461;28;20145;-77
2022/06/23 07:22:56;;;;;;;17.00;7.75;;;;;;;;;;4993524;28;20049;-76
2022/06/23 07:25:31;;;;;;;18.65;7.53;;;;;;;;;;5033794;28;20114;-76
2022/06/23 07:28:13;;;;;;;11.68;7.25;;;;;;;;;;5029030;28;20029;-75
2022/06/23 07:30:51;;;;;;;12.30;7.35;;;;;;;;;;5026314;28;20482;-75
2022/06/23 07:33:35;;;;;;;8.77;6.20;;;;;;;;;;5032908;28;20497;-72
2022/06/23 07:36:33;;;;;;;14.15;7.05;;;;;;;;;;5031638;28;20037;-74
2022/06/23 07:39:07;;;;;;;11.40;6.43;;;;;;;;;;5029499;28;20068;-75
2022/06/23 07:41:41;;;;;;;10.95;5.82;;;;;;;;;;5031776;28;20037;-76
2022/06/23 07:44:24;;;;;;;9.98;5.90;;;;;;;;;;5049435;28;20152;-75
2022/06/23 07:46:50;;;;;;;19.92;6.65;;;;;;;;;;5035261;28;20037;-74
2022/06/23 07:49:16;;;;;;;6.53;5.03;;;;;;;;;;5025884;28;20064;-74
2022/06/23 07:51:43;;;;;;;9.65;4.97;;;;;;;;;;5043822;28;20145;-75
2022/06/23 07:54:15;;;;;;;10.52;5.07;;;;;;;;;;5042976;28;20044;-75
2022/06/23 07:56:41;;;;;;;11.23;4.20;;;;;;;;;;5035690;28;20156;-76
2022/06/23 07:59:11;;;;;;;6.35;4.50;;;;;;;;;;5032001;28;20028;-74
2022/06/23 08:01:53;;;;;;;9.38;4.55;;;;;;;;;;5035166;28;20056;-76
2022/06/23 08:05:03;;;;;;;13.38;5.13;;;;;;;;;;5036402;28;20025;-74
2022/06/23 08:07:31;;;;;;;9.57;4.63;;;;;;;;;;4994569;28;20044;-75
2022/06/23 08:10:02;;;;;;;13.30;4.75;;;;;;;;;;5011796;28;20044;-74
2022/06/23 08:12:58;;;;;;;14.07;5.32;;;;;;;;;;5036390;28;20037;-76
2022/06/23 08:18:49;;;;;;;15.13;4.68;;;;;;;;;;5030521;28;20204;-75
2022/06/23 08:21:30;;;;;;;15.15;4.70;;;;;;;;;;5030645;28;20075;-76
2022/06/23 08:24:06;;;;;;;9.40;4.05;;;;;;;;;;5014758;28;20041;-74
2022/06/23 08:26:33;;;;;;;8.70;4.05;;;;;;;;;;5024726;28;20067;-75
2022/06/23 08:29:03;;;;;;;9.13;3.97;;;;;;;;;;5026439;28;20032;-76
2022/06/23 08:31:31;;;;;;;8.20;4.18;;;;;;;;;;5026865;28;20037;-78
2022/06/23 08:33:58;;;;;;;6.15;3.88;;;;;;;;;;5032029;28;20032;-77
2022/06/23 08:36:49;;;;;;;7.57;3.75;;;;;;;;;;5031864;28;20034;-75
2022/06/23 08:40:04;;;;;;;8.30;4.00;;;;;;;;;;5025499;28;20167;-75
2022/06/23 08:42:55;;;;;;;11.75;4.53;;;;;;;;;;4970817;28;20068;-77
2022/06/23 08:45:30;;;;;;;48.42;10.90;;;;;;;;;;5027307;28;20052;-77
2022/06/23 08:48:11;;;;;;;7.45;3.40;;;;;;;;;;5049143;28;20056;-74
2022/06/23 08:51:03;;;;;;;4.10;3.72;;;;;;;;;;5022991;28;20151;-76
2022/06/23 08:53:51;;;;;;;5.75;3.08;;;;;;;;;;5036135;28;20032;-75
2022/06/23 08:57:10;;;;;;;6.90;3.42;;;;;;;;;;5024560;28;20033;-76
2022/06/23 08:59:59;;;;;;;8.68;2.90;;;;;;;;;;4978098;28;20070;-75
2022/06/23 09:02:55;;;;;;;5.18;3.00;;;;;;;;;;5026955;28;20119;-75
2022/06/23 09:05:39;;;;;;;14.05;3.22;;;;;;;;;;5027145;28;20036;-74
2022/06/23 09:08:27;;;;;;;6.65;3.08;;;;;;;;;;5027501;28;20683;-75
2022/06/23 09:10:52;;;;;;;;;;;;;;;;;;5020864;28;20959;-76
2022/06/23 09:13:46;;;;;;;12.07;6.60;;;;;;;;;;5028254;28;19936;-77
2022/06/23 09:16:43;;;;;;;6.63;3.88;;;;;;;;;;5028421;28;20441;-76
2022/06/23 09:19:17;;;;;;;6.22;2.78;;;;;;;;;;5024637;28;20164;-75
2022/06/23 09:22:09;;;;;;;4.53;3.17;;;;;;;;;;5026159;28;20137;-76
2022/06/23 09:24:41;;;;;;;10.00;3.17;;;;;;;;;;5029129;28;20033;-75
2022/06/23 09:27:34;;;;;;;6.00;3.40;;;;;;;;;;5028961;28;20110;-74
2022/06/23 09:30:23;;;;;;;5.65;3.28;;;;;;;;;;5023819;28;20048;-76
2022/06/23 09:33:20;;;;;;;4.55;2.92;;;;;;;;;;5027632;28;20028;-74
2022/06/23 09:36:12;;;;;;;7.35;3.50;;;;;;;;;;5029296;28;20031;-77
2022/06/23 09:39:02;;;;;;;4.43;3.20;;;;;;;;;;5025543;28;20035;-79
2022/06/23 09:42:05;;;;;;;3.95;3.00;;;;;;;;;;5024729;28;20144;-75
2022/06/23 09:44:52;;;;;;;6.40;2.92;;;;;;;;;;5028980;28;20037;-74
2022/06/23 09:47:59;;;;;;;3.22;2.67;;;;;;;;;;5030044;28;20469;-75
2022/06/23 09:50:50;;;;;;;4.35;3.05;;;;;;;;;;4971786;28;20034;-74
2022/06/23 09:53:34;;;;;;;;;;;;;;;;;;4981748;28;20756;-77
2022/06/23 09:56:37;;;;;;;5.43;3.40;;;;;;;;;;5024712;28;19913;-75
2022/06/23 09:59:30;;;;;;;3.85;2.33;;;;;;;;;;5034890;28;20074;-77
2022/06/23 10:02:34;;;;;;;4.43;2.70;;;;;;;;;;5033520;28;20040;-76
2022/06/23 10:05:12;;;;;;;4.53;2.72;;;;;;;;;;5031331;28;20031;-76
2022/06/23 10:08:00;;;;;;;4.78;3.03;;;;;;;;;;5048803;28;20056;-75
2022/06/23 10:10:52;;;;;;;5.05;2.60;;;;;;;;;;5024039;28;20065;-76
2022/06/23 10:13:45;;;;;;;4.95;2.72;;;;;;;;;;5033885;28;20047;-77
2022/06/23 10:16:36;;;;;;;4.75;2.28;;;;;;;;;;5029618;28;20017;-77
2022/06/23 10:19:23;;;;;;;4.95;2.60;;;;;;;;;;5033132;28;20064;-78
2022/06/23 10:22:30;;;;;;;4.38;2.78;;;;;;;;;;5034526;28;20544;-76
2022/06/23 10:25:24;;;;;;;4.35;2.63;;;;;;;;;;5032313;28;21088;-77
2022/06/23 10:28:23;;;;;;;3.10;2.45;;;;;;;;;;5025716;28;20114;-76
2022/06/23 10:31:16;;;;;;;4.22;2.45;;;;;;;;;;5016238;28;20067;-77
2022/06/23 10:34:03;;;;;;;4.22;2.28;;;;;;;;;;5026939;28;21259;-78
2022/06/23 10:36:54;;;;;;;6.28;2.75;;;;;;;;;;5030158;28;20040;-78
2022/06/23 10:39:46;;;;;;;7.88;2.28;;;;;;;;;;5023291;28;20025;-77
2022/06/23 10:42:20;;;;;;;7.10;2.40;;;;;;;;;;5025183;28;20131;-77
2022/06/23 10:44:48;;;;;;;6.20;2.30;;;;;;;;;;5031225;28;20053;-76
2022/06/23 10:47:22;;;;;;;4.95;2.35;;;;;;;;;;5028158;28;20119;-77
2022/06/23 10:50:00;;;;;;;5.63;2.50;;;;;;;;;;5018166;28;20036;-78
2022/06/23 10:52:44;;;;;;;5.07;2.38;;;;;;;;;;5029946;28;20483;-78
2022/06/23 10:55:28;;;;;;;4.45;1.83;;;;;;;;;;5024628;28;20154;-77
2022/06/23 10:58:00;;;;;;;6.32;2.28;;;;;;;;;;5027429;28;20519;-75
2022/06/23 11:01:04;;;;;;;3.05;1.80;;;;;;;;;;5022443;28;20406;-75
2022/06/23 11:04:20;;;;;;;2.50;2.30;;;;;;;;;;5025765;28;20061;-76
2022/06/23 11:06:48;;;;;;;7.63;2.40;;;;;;;;;;5002243;28;20045;-77
2022/06/23 11:09:38;;;;;;;4.97;2.85;;;;;;;;;;5022506;28;20029;-77
2022/06/23 11:12:23;;;;;;;10.88;3.38;;;;;;;;;;5028168;28;20037;-78
2022/06/23 11:15:21;;;;;;;2.38;2.17;;;;;;;;;;5029690;28;20107;-75
2022/06/23 11:18:08;;;;;;;3.05;2.45;;;;;;;;;;5028165;28;20038;-77
2022/06/23 11:20:43;;;;;;;6.03;2.50;;;;;;;;;;5023755;28;20032;-77
2022/06/23 11:23:37;;;;;;;4.45;2.50;;;;;;;;;;5028126;28;20029;-75
2022/06/23 11:26:42;;;;;;;5.50;2.47;;;;;;;;;;5029025;28;20048;-75
2022/06/23 11:29:27;;;;;;;3.25;2.50;;;;;;;;;;5028618;28;20546;-77
2022/06/23 11:32:12;;;;;;;2.78;2.20;;;;;;;;;;5030560;28;20059;-78
2022/06/23 11:35:04;;;;;;;2.80;1.95;;;;;;;;;;5032540;28;20516;-77
2022/06/23 11:37:54;;;;;;;4.72;2.17;;;;;;;;;;5041334;28;20163;-75
2022/06/23 11:41:01;;;;;;;6.47;3.10;;;;;;;;;;5024514;28;20533;-78
2022/06/23 11:43:47;;;;;;;6.05;2.75;;;;;;;;;;5061876;28;20084;-76
2022/06/23 11:46:29;;;;;;;2.95;2.20;;;;;;;;;;5030163;28;20037;-73
2022/06/23 11:49:24;;;;;;;4.13;2.10;;;;;;;;;;5026675;28;20040;-76
2022/06/23 11:52:13;;;;;;;6.25;2.00;;;;;;;;;;5025968;28;20060;-77
2022/06/23 11:55:08;;;;;;;2.45;2.22;;;;;;;;;;5016983;28;20131;-76
2022/06/23 11:57:55;;;;;;;4.40;2.20;;;;;;;;;;5027422;28;20720;-76
2022/06/23 12:00:41;;;;;;;2.80;1.98;;;;;;;;;;5023469;28;20040;-77
2022/06/23 12:03:28;;;;;;;8.20;2.58;;;;;;;;;;5027477;28;20540;-76
2022/06/23 12:06:17;;;;;;;4.63;2.40;;;;;;;;;;5030385;28;20067;-76
2022/06/23 12:08:47;;;;;;;3.17;1.90;;;;;;;;;;5026912;28;20029;-77
2022/06/23 12:11:16;;;;;;;4.67;2.10;;;;;;;;;;5024028;28;20087;-79
2022/06/23 12:13:42;;;;;;;4.80;1.90;;;;;;;;;;5028261;28;20323;-74
2022/06/23 12:16:10;;;;;;;6.15;2.10;;;;;;;;;;5024381;28;20052;-76
2022/06/23 12:18:44;;;;;;;2.60;1.65;;;;;;;;;;5025592;28;20065;-77
2022/06/23 12:21:35;;;;;;;2.08;1.70;;;;;;;;;;5019446;28;20116;-72
2022/06/23 12:24:25;;;;;;;1.83;1.73;;;;;;;;;;5026152;28;20094;-73
2022/06/23 12:27:25;;;;;;;5.00;2.25;;;;;;;;;;5025272;28;20029;-77
2022/06/23 12:30:10;;;;;;;5.22;2.35;;;;;;;;;;5020117;28;20033;-75
2022/06/23 12:32:44;;;;;;;3.88;1.85;;;;;;;;;;5018901;28;20033;-76
2022/06/23 12:35:16;;;;;;;7.85;2.13;;;;;;;;;;5029947;28;20033;-79
2022/06/23 12:37:48;;;;;;;2.67;1.60;;;;;;;;;;5032194;28;20079;-75
2022/06/23 12:40:50;;;;;;;3.35;2.05;;;;;;;;;;5025266;28;20067;-75
2022/06/23 12:43:43;;;;;;;2.80;1.60;;;;;;;;;;5032475;28;20016;-76
2022/06/23 12:46:38;;;;;;;3.72;2.00;;;;;;;;;;5032226;28;20029;-79
2022/06/23 12:49:18;;;;;;;2.13;1.55;;;;;;;;;;5027395;28;20033;-77
2022/06/23 12:52:30;;;;;;;3.15;1.35;;;;;;;;;;5023943;28;20029;-76
2022/06/23 12:55:25;;;;;;;2.17;1.50;;;;;;;;;;4994891;28;20079;-79
2022/06/23 12:58:04;;;;;;;5.05;1.70;;;;;;;;;;5027720;28;20045;-79
2022/06/23 13:00:33;;;;;;;3.50;1.33;;;;;;;;;;5024603;28;20144;-77
2022/06/23 13:03:24;;;;;;;1.40;1.30;;;;;;;;;;5031063;28;20067;-76
2022/06/23 13:06:24;;;;;;;6.95;2.20;;;;;;;;;;5030763;28;20100;-76
2022/06/23 13:09:21;;;;;;;1.35;1.25;;;;;;;;;;5035357;28;20053;-75
2022/06/23 13:12:19;;;;;;;2.60;1.75;;;;;;;;;;5023723;28;20029;-75
2022/06/23 13:15:04;;;;;;;3.45;1.50;;;;;;;;;;5028158;28;20468;-76
2022/06/23 13:17:46;;;;;;;5.03;1.60;;;;;;;;;;5031248;28;20038;-77
2022/06/23 13:20:42;;;;;;;6.97;2.13;;;;;;;;;;5024464;28;20136;-76
2022/06/23 13:23:13;;;;;;;3.95;1.48;;;;;;;;;;5026806;28;20061;-75
2022/06/23 13:25:51;;;;;;;3.05;2.00;;;;;;;;;;5031105;28;20041;-76
2022/06/23 13:28:35;;;;;;;3.20;1.17;;;;;;;;;;5013052;28;20483;-75
2022/06/23 13:31:17;;;;;;;2.85;1.30;;;;;;;;;;5022056;28;20025;-75
2022/06/23 13:34:04;;;;;;;2.72;1.10;;;;;;;;;;5059039;28;20036;-77
2022/06/23 13:36:41;;;;;;;3.97;1.85;;;;;;;;;;5056733;28;20033;-76
2022/06/23 13:39:28;;;;;;;2.67;1.33;;;;;;;;;;5027274;28;20039;-77
2022/06/23 13:42:41;;;;;;;2.50;1.38;;;;;;;;;;5032101;28;20031;-76
2022/06/23 13:45:22;;;;;;;3.45;1.45;;;;;;;;;;4958168;28;20133;-78
2022/06/23 13:48:29;;;;;;;2.03;1.40;;;;;;;;;;5028985;28;20049;-77
2022/06/23 13:51:18;;;;;;;5.13;1.63;;;;;;;;;;4961024;28;20022;-77
2022/06/23 13:53:52;;;;;;;2.65;1.50;;;;;;;;;;4962458;28;20229;-77
2022/06/23 13:56:21;;;;;;;2.45;1.40;;;;;;;;;;5009102;28;20117;-77
2022/06/23 13:59:07;;;;;;;1.75;1.20;;;;;;;;;;5031554;28;20591;-77
2022/06/23 14:02:01;;;;;;;3.03;1.50;;;;;;;;;;5023974;28;20118;-77
2022/06/23 14:04:37;;;;;;;4.20;1.50;;;;;;;;;;5041332;28;20104;-78
2022/06/23 14:07:11;;;;;;;3.70;1.35;;;;;;;;;;5045177;28;20028;-76
2022/06/23 14:09:43;;;;;;;4.75;1.50;;;;;;;;;;5049636;28;20361;-78
2022/06/23 14:12:31;;;;;;;2.63;1.30;;;;;;;;;;5046612;28;20101;-77
2022/06/23 14:15:26;;;;;;;6.65;1.50;;;;;;;;;;5045621;28;20032;-78
2022/06/23 14:18:06;;;;;;;4.38;1.15;;;;;;;;;;5033165;28;20775;-76
2022/06/23 14:20:52;;;;;;;3.83;1.08;;;;;;;;;;5045108;28;20032;-78
2022/06/23 14:23:30;;;;;;;3.63;1.40;;;;;;;;;;5043809;28;20036;-77
2022/06/23 14:26:17;;;;;;;4.43;1.42;;;;;;;;;;5045647;28;20025;-77
2022/06/23 14:29:04;;;;;;;5.50;1.20;;;;;;;;;;5043714;28;20033;-77
2022/06/23 14:31:42;;;;;;;2.70;1.30;;;;;;;;;;5045278;28;20037;-77
2022/06/23 14:34:41;;;;;;;1.57;1.20;;;;;;;;;;5048032;28;20075;-75
2022/06/23 14:37:32;;;;;;;4.60;1.60;;;;;;;;;;5044322;28;20056;-75
2022/06/23 14:40:05;;;;;;;3.50;1.33;;;;;;;;;;5043962;28;20108;-76
2022/06/23 14:42:40;;;;;;;2.58;1.23;;;;;;;;;;5041576;28;20606;-79
2022/06/23 14:45:33;;;;;;;8.65;1.48;;;;;;;;;;5041867;28;20032;-79
2022/06/23 14:48:20;;;;;;;6.78;2.70;;;;;;;;;;5046931;28;20538;-76
2022/06/23 14:50:48;;;;;;;4.45;1.70;;;;;;;;;;5044359;28;20040;-78
2022/06/23 14:53:48;;;;;;;4.47;1.42;;;;;;;;;;5047412;28;20468;-79
2022/06/23 14:56:30;;;;;;;4.10;1.50;;;;;;;;;;5048097;28;20025;-76
2022/06/23 14:59:09;;;;;;;2.72;1.60;;;;;;;;;;5044886;28;20025;-75
2022/06/23 15:02:07;;;;;;;6.80;1.58;;;;;;;;;;5055339;28;20546;-78
2022/06/23 15:04:50;;;;;;;3.38;1.40;;;;;;;;;;5044353;28;20571;-76
2022/06/23 15:07:25;;;;;;;2.85;1.42;;;;;;;;;;5063359;28;20361;-75
2022/06/23 15:09:59;;;;;;;3.47;1.55;;;;;;;;;;5045481;28;20481;-79
2022/06/23 15:12:37;;;;;;;8.55;1.88;;;;;;;;;;5048094;28;20017;-81
2022/06/23 15:15:18;;;;;;;1.77;1.27;;;;;;;;;;5048736;28;20041;-76
2022/06/23 15:17:59;;;;;;;2.88;1.15;;;;;;;;;;5038735;28;20103;-77
2022/06/23 15:20:43;;;;;;;2.60;1.70;;;;;;;;;;5048703;28;20021;-77
2022/06/23 15:23:26;;;;;;;4.22;1.83;;;;;;;;;;5050663;28;20028;-78
2022/06/23 15:26:01;;;;;;;5.28;2.15;;;;;;;;;;5045235;28;20178;-74
2022/06/23 15:28:35;;;;;;;2.70;2.15;;;;;;;;;;5047556;28;20115;-74
2022/06/23 15:31:11;;;;;;;3.30;2.00;;;;;;;;;;5046214;28;20033;-76
2022/06/23 15:34:12;;;;;;;1.67;1.58;;;;;;;;;;5047372;28;20029;-77
2022/06/23 15:37:06;;;;;;;2.70;1.80;;;;;;;;;;5050586;28;20030;-77
2022/06/23 15:39:46;;;;;;;2.92;1.55;;;;;;;;;;5048298;28;20032;-73
2022/06/23 15:42:12;;;;;;;;;;;;;;;;;;5049030;28;20029;-75
2022/06/23 15:44:47;;;;;;;1.83;1.60;;;;;;;;;;5048784;28;20027;-76
2022/06/23 15:47:28;;;;;;;1.98;1.60;;;;;;;;;;5047686;28;20470;-77
2022/06/23 15:50:31;;;;;;;5.05;2.17;;;;;;;;;;5047647;28;20028;-82
2022/06/23 15:53:09;;;;;;;2.85;1.67;;;;;;;;;;5047670;28;20174;-76
2022/06/23 15:56:17;;;;;;;3.88;1.73;;;;;;;;;;5033223;28;20063;-77
2022/06/23 15:58:49;;;;;;;3.08;1.65;;;;;;;;;;5036422;28;20037;-78
2022/06/23 16:01:44;;;;;;;5.22;2.00;;;;;;;;;;5047917;28;20090;-78
2022/06/23 16:04:28;;;;;;;3.17;1.83;;;;;;;;;;5049138;28;20051;-80
2022/06/23 16:06:58;;;;;;;2.90;1.90;;;;;;;;;;5049817;28;20352;-78
2022/06/23 16:09:40;;;;;;;2.08;1.83;;;;;;;;;;5034245;28;20029;-82
2022/06/23 16:12:15;;;;;;;3.00;1.70;;;;;;;;;;5056893;28;20477;-79
2022/06/23 16:14:51;;;;;;;2.05;1.65;;;;;;;;;;5055148;28;20048;-77
2022/06/23 16:17:21;;;;;;;3.63;1.73;;;;;;;;;;5063070;28;20052;-76